sensor_id;sensor_type;location;lat;lon;timestamp;temperature;humidity
3923;DHT22;1976;51.694;6.256;2022-10-31T00:01:25;15.20;99.90
3923;DHT22;1976;51.694;6.256;2022-10-31T00:03:51;15.20;99.90
3923;DHT22;1976;51.694;6.256;2022-10-31T00:06:17;15.30;99.90
3923;DHT22;1976;51.694;6.256;2022-10-31T00:08:51;15.30;99.90
3923;DHT22;1976;51.694;6.256;2022-10-31T00:11:16;15.30;99.90
3923;DHT22;1976;51.694;6.256;2022-10-31T00:13:42;15.20;99.90
3923;DHT22;1976;51.694;6.256;2022-10-31T00:16:20;15.10;99.90
3923;DHT22;1976;51.694;6.256;2022-10-31T00:18:50;15.10;99.90
3923;DHT22;1976;51.694;6.256;2022-10-31T00:21:16;15.00;99.90
3923;DHT22;1976;51.694;6.256;2022-10-31T00:23:42;15.00;99.90
3923;DHT22;1976;51.694;6.256;2022-10-31T00:26:07;15.00;99.90
3923;DHT22;1976;51.694;6.256;2022-10-31T00:28:35;15.00;99.90
3923;DHT22;1976;51.694;6.256;2022-10-31T00:31:02;15.00;99.90
3923;DHT22;1976;51.694;6.256;2022-10-31T00:33:32;15.00;99.90
3923;DHT22;1976;51.694;6.256;2022-10-31T00:35:58;15.00;99.90
3923;DHT22;1976;51.694;6.256;2022-10-31T00:40:52;15.00;99.90
3923;DHT22;1976;51.694;6.256;2022-10-31T00:43:18;14.90;99.90
3923;DHT22;1976;51.694;6.256;2022-10-31T00:45:44;15.00;99.90
3923;DHT22;1976;51.694;6.256;2022-10-31T00:50:37;14.90;99.90
3923;DHT22;1976;51.694;6.256;2022-10-31T00:53:02;14.80;99.90
3923;DHT22;1976;51.694;6.256;2022-10-31T00:55:28;14.80;99.90
3923;DHT22;1976;51.694;6.256;2022-10-31T00:57:54;14.70;99.90
3923;DHT22;1976;51.694;6.256;2022-10-31T01:00:20;14.70;99.90
3923;DHT22;1976;51.694;6.256;2022-10-31T01:02:46;14.70;99.90
3923;DHT22;1976;51.694;6.256;2022-10-31T01:05:12;14.70;99.90
3923;DHT22;1976;51.694;6.256;2022-10-31T01:07:39;14.70;99.90
3923;DHT22;1976;51.694;6.256;2022-10-31T01:10:06;14.70;99.90
3923;DHT22;1976;51.694;6.256;2022-10-31T01:12:43;14.60;99.90
3923;DHT22;1976;51.694;6.256;2022-10-31T01:15:11;14.60;99.90
3923;DHT22;1976;51.694;6.256;2022-10-31T01:17:37;14.60;99.90
3923;DHT22;1976;51.694;6.256;2022-10-31T01:20:04;14.70;99.90
3923;DHT22;1976;51.694;6.256;2022-10-31T01:22:30;14.70;99.90
3923;DHT22;1976;51.694;6.256;2022-10-31T01:24:55;14.70;99.90
3923;DHT22;1976;51.694;6.256;2022-10-31T01:27:21;14.70;99.90
3923;DHT22;1976;51.694;6.256;2022-10-31T01:29:47;14.80;99.90
3923;DHT22;1976;51.694;6.256;2022-10-31T01:32:12;14.90;99.90
3923;DHT22;1976;51.694;6.256;2022-10-31T01:34:38;14.90;99.90
3923;DHT22;1976;51.694;6.256;2022-10-31T01:37:04;14.90;99.90
3923;DHT22;1976;51.694;6.256;2022-10-31T01:39:29;14.90;99.90
3923;DHT22;1976;51.694;6.256;2022-10-31T01:41:55;14.90;99.90
3923;DHT22;1976;51.694;6.256;2022-10-31T01:46:57;14.70;99.90
3923;DHT22;1976;51.694;6.256;2022-10-31T01:54:34;14.40;99.90
3923;DHT22;1976;51.694;6.256;2022-10-31T01:57:02;14.20;99.90
3923;DHT22;1976;51.694;6.256;2022-10-31T01:59:30;14.20;99.90
3923;DHT22;1976;51.694;6.256;2022-10-31T02:01:57;14.20;99.90
3923;DHT22;1976;51.694;6.256;2022-10-31T02:06:56;14.30;99.90
3923;DHT22;1976;51.694;6.256;2022-10-31T02:09:23;14.30;99.90
3923;DHT22;1976;51.694;6.256;2022-10-31T02:11:55;14.30;99.90
3923;DHT22;1976;51.694;6.256;2022-10-31T02:14:23;14.40;99.90
3923;DHT22;1976;51.694;6.256;2022-10-31T02:16:49;14.30;99.90
3923;DHT22;1976;51.694;6.256;2022-10-31T02:19:22;14.20;99.90
3923;DHT22;1976;51.694;6.256;2022-10-31T02:22:13;14.20;99.90
3923;DHT22;1976;51.694;6.256;2022-10-31T02:32:56;14.30;99.90
3923;DHT22;1976;51.694;6.256;2022-10-31T02:38:18;14.20;99.90
3923;DHT22;1976;51.694;6.256;2022-10-31T02:43:28;14.00;99.90
3923;DHT22;1976;51.694;6.256;2022-10-31T02:48:33;14.10;99.90
3923;DHT22;1976;51.694;6.256;2022-10-31T02:51:03;14.10;99.90
3923;DHT22;1976;51.694;6.256;2022-10-31T02:53:36;14.10;99.90
3923;DHT22;1976;51.694;6.256;2022-10-31T02:56:17;14.00;99.90
3923;DHT22;1976;51.694;6.256;2022-10-31T02:58:53;14.10;99.90
3923;DHT22;1976;51.694;6.256;2022-10-31T03:10:20;14.00;99.90
3923;DHT22;1976;51.694;6.256;2022-10-31T03:15:51;14.00;99.90
3923;DHT22;1976;51.694;6.256;2022-10-31T03:18:32;14.00;99.90
3923;DHT22;1976;51.694;6.256;2022-10-31T03:23:32;13.90;99.90
3923;DHT22;1976;51.694;6.256;2022-10-31T03:26:00;13.90;99.90
3923;DHT22;1976;51.694;6.256;2022-10-31T03:28:36;13.90;99.90
3923;DHT22;1976;51.694;6.256;2022-10-31T03:31:04;13.90;99.90
3923;DHT22;1976;51.694;6.256;2022-10-31T03:33:34;13.90;99.90
3923;DHT22;1976;51.694;6.256;2022-10-31T03:36:03;13.80;99.90
3923;DHT22;1976;51.694;6.256;2022-10-31T03:38:29;13.80;99.90
3923;DHT22;1976;51.694;6.256;2022-10-31T03:40:59;13.90;99.90
3923;DHT22;1976;51.694;6.256;2022-10-31T03:43:32;13.90;99.90
3923;DHT22;1976;51.694;6.256;2022-10-31T03:45:58;13.90;99.90
3923;DHT22;1976;51.694;6.256;2022-10-31T03:48:24;13.90;99.90
3923;DHT22;1976;51.694;6.256;2022-10-31T03:51:09;13.80;99.90
3923;DHT22;1976;51.694;6.256;2022-10-31T03:53:48;13.90;99.90
3923;DHT22;1976;51.694;6.256;2022-10-31T03:56:37;13.80;99.90
3923;DHT22;1976;51.694;6.256;2022-10-31T03:59:21;13.80;99.90
3923;DHT22;1976;51.694;6.256;2022-10-31T04:01:53;13.70;99.90
3923;DHT22;1976;51.694;6.256;2022-10-31T04:04:20;13.60;99.90
3923;DHT22;1976;51.694;6.256;2022-10-31T04:06:47;13.70;99.90
3923;DHT22;1976;51.694;6.256;2022-10-31T04:09:14;13.70;99.90
3923;DHT22;1976;51.694;6.256;2022-10-31T04:11:49;13.70;99.90
3923;DHT22;1976;51.694;6.256;2022-10-31T04:14:15;13.70;99.90
3923;DHT22;1976;51.694;6.256;2022-10-31T04:16:43;13.70;99.90
3923;DHT22;1976;51.694;6.256;2022-10-31T04:19:10;13.60;99.90
3923;DHT22;1976;51.694;6.256;2022-10-31T04:24:02;13.50;99.90
3923;DHT22;1976;51.694;6.256;2022-10-31T04:26:28;13.30;99.90
3923;DHT22;1976;51.694;6.256;2022-10-31T04:28:53;13.30;99.90
3923;DHT22;1976;51.694;6.256;2022-10-31T04:31:19;13.20;99.90
3923;DHT22;1976;51.694;6.256;2022-10-31T04:33:45;13.20;99.90
3923;DHT22;1976;51.694;6.256;2022-10-31T04:36:10;13.20;99.90
3923;DHT22;1976;51.694;6.256;2022-10-31T04:38:36;13.20;99.90
3923;DHT22;1976;51.694;6.256;2022-10-31T04:41:02;13.20;99.90
3923;DHT22;1976;51.694;6.256;2022-10-31T04:43:27;13.20;99.90
3923;DHT22;1976;51.694;6.256;2022-10-31T04:45:53;13.30;99.90
3923;DHT22;1976;51.694;6.256;2022-10-31T04:48:18;13.20;99.90
3923;DHT22;1976;51.694;6.256;2022-10-31T04:50:44;13.20;99.90
3923;DHT22;1976;51.694;6.256;2022-10-31T04:53:10;13.20;99.90
3923;DHT22;1976;51.694;6.256;2022-10-31T04:55:36;13.30;99.90
3923;DHT22;1976;51.694;6.256;2022-10-31T04:58:02;13.30;99.90
3923;DHT22;1976;51.694;6.256;2022-10-31T05:00:28;13.30;99.90
3923;DHT22;1976;51.694;6.256;2022-10-31T05:02:55;13.40;99.90
3923;DHT22;1976;51.694;6.256;2022-10-31T05:05:26;13.40;99.90
3923;DHT22;1976;51.694;6.256;2022-10-31T05:07:52;13.40;99.90
3923;DHT22;1976;51.694;6.256;2022-10-31T05:10:23;13.40;99.90
3923;DHT22;1976;51.694;6.256;2022-10-31T05:15:17;13.40;99.90
3923;DHT22;1976;51.694;6.256;2022-10-31T05:17:43;13.30;99.90
3923;DHT22;1976;51.694;6.256;2022-10-31T05:20:10;13.30;99.90
3923;DHT22;1976;51.694;6.256;2022-10-31T05:22:36;13.30;99.90
3923;DHT22;1976;51.694;6.256;2022-10-31T05:25:02;13.30;99.90
3923;DHT22;1976;51.694;6.256;2022-10-31T05:27:28;13.40;99.90
3923;DHT22;1976;51.694;6.256;2022-10-31T05:29:54;13.40;99.90
3923;DHT22;1976;51.694;6.256;2022-10-31T05:32:19;13.50;99.90
3923;DHT22;1976;51.694;6.256;2022-10-31T05:34:45;13.50;99.90
3923;DHT22;1976;51.694;6.256;2022-10-31T05:37:10;13.60;99.90
3923;DHT22;1976;51.694;6.256;2022-10-31T05:39:36;13.60;99.90
3923;DHT22;1976;51.694;6.256;2022-10-31T05:42:02;13.60;99.90
3923;DHT22;1976;51.694;6.256;2022-10-31T05:44:28;13.70;99.90
3923;DHT22;1976;51.694;6.256;2022-10-31T05:46:54;13.70;99.90
3923;DHT22;1976;51.694;6.256;2022-10-31T05:49:20;13.60;99.90
3923;DHT22;1976;51.694;6.256;2022-10-31T05:51:46;13.60;99.90
3923;DHT22;1976;51.694;6.256;2022-10-31T05:54:11;13.60;99.90
3923;DHT22;1976;51.694;6.256;2022-10-31T05:56:37;13.50;99.90
3923;DHT22;1976;51.694;6.256;2022-10-31T05:59:02;13.50;99.90
3923;DHT22;1976;51.694;6.256;2022-10-31T06:01:28;13.40;99.90
3923;DHT22;1976;51.694;6.256;2022-10-31T06:03:53;13.40;99.90
3923;DHT22;1976;51.694;6.256;2022-10-31T06:06:19;13.40;99.90
3923;DHT22;1976;51.694;6.256;2022-10-31T06:08:45;13.30;99.90
3923;DHT22;1976;51.694;6.256;2022-10-31T06:11:10;13.20;99.90
3923;DHT22;1976;51.694;6.256;2022-10-31T06:13:36;13.20;99.90
3923;DHT22;1976;51.694;6.256;2022-10-31T06:16:02;13.20;99.90
3923;DHT22;1976;51.694;6.256;2022-10-31T06:18:28;13.10;99.90
3923;DHT22;1976;51.694;6.256;2022-10-31T06:20:53;13.10;99.90
3923;DHT22;1976;51.694;6.256;2022-10-31T06:23:19;13.10;99.90
3923;DHT22;1976;51.694;6.256;2022-10-31T06:25:51;13.00;99.90
3923;DHT22;1976;51.694;6.256;2022-10-31T06:28:17;13.00;99.90
3923;DHT22;1976;51.694;6.256;2022-10-31T06:30:42;12.90;99.90
3923;DHT22;1976;51.694;6.256;2022-10-31T06:33:08;12.80;99.90
3923;DHT22;1976;51.694;6.256;2022-10-31T06:35:33;12.80;99.90
3923;DHT22;1976;51.694;6.256;2022-10-31T06:37:59;12.80;99.90
3923;DHT22;1976;51.694;6.256;2022-10-31T06:40:25;12.70;99.90
3923;DHT22;1976;51.694;6.256;2022-10-31T06:42:58;12.70;99.90
3923;DHT22;1976;51.694;6.256;2022-10-31T06:45:24;12.60;99.90
3923;DHT22;1976;51.694;6.256;2022-10-31T06:47:54;12.60;99.90
3923;DHT22;1976;51.694;6.256;2022-10-31T06:50:21;12.50;99.90
3923;DHT22;1976;51.694;6.256;2022-10-31T06:52:57;12.50;99.90
3923;DHT22;1976;51.694;6.256;2022-10-31T06:55:24;12.50;99.90
3923;DHT22;1976;51.694;6.256;2022-10-31T06:57:55;12.50;99.90
3923;DHT22;1976;51.694;6.256;2022-10-31T07:00:21;12.50;99.90
3923;DHT22;1976;51.694;6.256;2022-10-31T07:02:54;12.60;99.90
3923;DHT22;1976;51.694;6.256;2022-10-31T07:05:19;12.60;99.90
3923;DHT22;1976;51.694;6.256;2022-10-31T07:07:45;12.70;99.90
3923;DHT22;1976;51.694;6.256;2022-10-31T07:10:11;12.70;99.90
3923;DHT22;1976;51.694;6.256;2022-10-31T07:12:36;12.80;99.90
3923;DHT22;1976;51.694;6.256;2022-10-31T07:15:03;12.80;99.90
3923;DHT22;1976;51.694;6.256;2022-10-31T07:17:29;12.80;99.90
3923;DHT22;1976;51.694;6.256;2022-10-31T07:19:55;12.90;99.90
3923;DHT22;1976;51.694;6.256;2022-10-31T07:22:20;13.00;99.90
3923;DHT22;1976;51.694;6.256;2022-10-31T07:24:46;13.00;99.90
3923;DHT22;1976;51.694;6.256;2022-10-31T07:27:11;13.10;99.90
3923;DHT22;1976;51.694;6.256;2022-10-31T07:29:37;13.10;99.90
3923;DHT22;1976;51.694;6.256;2022-10-31T07:32:03;13.20;99.90
3923;DHT22;1976;51.694;6.256;2022-10-31T07:34:28;13.20;99.90
3923;DHT22;1976;51.694;6.256;2022-10-31T07:36:54;13.30;99.90
3923;DHT22;1976;51.694;6.256;2022-10-31T07:39:20;13.40;99.90
3923;DHT22;1976;51.694;6.256;2022-10-31T07:41:45;13.40;99.90
3923;DHT22;1976;51.694;6.256;2022-10-31T07:44:11;13.40;99.90
3923;DHT22;1976;51.694;6.256;2022-10-31T07:46:36;13.60;99.90
3923;DHT22;1976;51.694;6.256;2022-10-31T07:49:02;13.70;99.90
3923;DHT22;1976;51.694;6.256;2022-10-31T07:51:28;13.70;99.90
3923;DHT22;1976;51.694;6.256;2022-10-31T07:53:53;13.80;99.90
3923;DHT22;1976;51.694;6.256;2022-10-31T07:56:19;14.10;99.90
3923;DHT22;1976;51.694;6.256;2022-10-31T07:58:45;14.40;99.90
3923;DHT22;1976;51.694;6.256;2022-10-31T08:01:10;14.50;99.90
3923;DHT22;1976;51.694;6.256;2022-10-31T08:03:36;14.80;99.90
3923;DHT22;1976;51.694;6.256;2022-10-31T08:06:01;14.90;99.90
3923;DHT22;1976;51.694;6.256;2022-10-31T08:08:27;15.00;99.90
3923;DHT22;1976;51.694;6.256;2022-10-31T08:10:54;15.20;99.90
3923;DHT22;1976;51.694;6.256;2022-10-31T08:13:20;15.60;99.90
3923;DHT22;1976;51.694;6.256;2022-10-31T08:15:45;15.80;99.90
3923;DHT22;1976;51.694;6.256;2022-10-31T08:18:16;16.40;99.90
3923;DHT22;1976;51.694;6.256;2022-10-31T08:20:43;16.90;99.90
3923;DHT22;1976;51.694;6.256;2022-10-31T08:23:10;17.50;99.90
3923;DHT22;1976;51.694;6.256;2022-10-31T08:25:36;18.10;99.90
3923;DHT22;1976;51.694;6.256;2022-10-31T08:28:03;18.40;99.90
3923;DHT22;1976;51.694;6.256;2022-10-31T08:30:30;18.60;99.90
3923;DHT22;1976;51.694;6.256;2022-10-31T08:33:01;19.20;99.90
3923;DHT22;1976;51.694;6.256;2022-10-31T08:35:27;19.70;99.90
3923;DHT22;1976;51.694;6.256;2022-10-31T08:37:57;20.00;99.90
3923;DHT22;1976;51.694;6.256;2022-10-31T08:40:24;20.50;99.90
3923;DHT22;1976;51.694;6.256;2022-10-31T08:43:01;20.70;99.90
3923;DHT22;1976;51.694;6.256;2022-10-31T08:45:28;21.10;99.90
3923;DHT22;1976;51.694;6.256;2022-10-31T08:48:02;21.40;99.90
3923;DHT22;1976;51.694;6.256;2022-10-31T08:50:29;21.40;99.90
3923;DHT22;1976;51.694;6.256;2022-10-31T08:55:27;20.70;99.90
3923;DHT22;1976;51.694;6.256;2022-10-31T08:57:58;20.20;99.90
3923;DHT22;1976;51.694;6.256;2022-10-31T09:00:24;20.10;99.90
3923;DHT22;1976;51.694;6.256;2022-10-31T09:03:02;20.30;99.90
3923;DHT22;1976;51.694;6.256;2022-10-31T09:05:28;20.60;99.90
3923;DHT22;1976;51.694;6.256;2022-10-31T09:08:01;21.00;99.90
3923;DHT22;1976;51.694;6.256;2022-10-31T09:10:28;21.30;99.90
3923;DHT22;1976;51.694;6.256;2022-10-31T09:13:01;21.70;99.90
3923;DHT22;1976;51.694;6.256;2022-10-31T09:15:28;22.20;99.90
3923;DHT22;1976;51.694;6.256;2022-10-31T09:17:54;22.50;99.90
3923;DHT22;1976;51.694;6.256;2022-10-31T09:20:20;22.80;99.90
3923;DHT22;1976;51.694;6.256;2022-10-31T09:22:45;22.90;99.90
3923;DHT22;1976;51.694;6.256;2022-10-31T09:25:11;22.90;99.90
3923;DHT22;1976;51.694;6.256;2022-10-31T09:27:37;22.40;99.90
3923;DHT22;1976;51.694;6.256;2022-10-31T09:30:04;22.30;99.90
3923;DHT22;1976;51.694;6.256;2022-10-31T09:32:30;22.20;99.90
3923;DHT22;1976;51.694;6.256;2022-10-31T09:37:21;21.80;99.90
3923;DHT22;1976;51.694;6.256;2022-10-31T09:39:47;21.90;99.90
3923;DHT22;1976;51.694;6.256;2022-10-31T09:42:54;22.20;99.90
3923;DHT22;1976;51.694;6.256;2022-10-31T09:45:26;23.40;99.90
3923;DHT22;1976;51.694;6.256;2022-10-31T09:48:27;24.70;99.80
3923;DHT22;1976;51.694;6.256;2022-10-31T09:51:04;25.60;97.20
3923;DHT22;1976;51.694;6.256;2022-10-31T09:55:59;25.10;97.20
3923;DHT22;1976;51.694;6.256;2022-10-31T09:58:30;24.90;97.30
3923;DHT22;1976;51.694;6.256;2022-10-31T10:00:59;24.70;97.90
3923;DHT22;1976;51.694;6.256;2022-10-31T10:03:53;25.00;98.10
3923;DHT22;1976;51.694;6.256;2022-10-31T10:06:27;25.20;97.80
3923;DHT22;1976;51.694;6.256;2022-10-31T10:08:55;25.70;97.40
3923;DHT22;1976;51.694;6.256;2022-10-31T10:32:59;24.20;98.40
3923;DHT22;1976;51.694;6.256;2022-10-31T10:35:44;24.20;98.90
3923;DHT22;1976;51.694;6.256;2022-10-31T10:40:55;24.20;99.00
3923;DHT22;1976;51.694;6.256;2022-10-31T10:43:24;24.40;98.80
3923;DHT22;1976;51.694;6.256;2022-10-31T10:59:56;24.40;98.50
3923;DHT22;1976;51.694;6.256;2022-10-31T11:02:26;24.80;98.40
3923;DHT22;1976;51.694;6.256;2022-10-31T11:04:54;25.00;97.20
3923;DHT22;1976;51.694;6.256;2022-10-31T11:07:21;24.90;97.50
3923;DHT22;1976;51.694;6.256;2022-10-31T11:09:47;24.60;97.20
3923;DHT22;1976;51.694;6.256;2022-10-31T11:12:32;24.30;98.20
3923;DHT22;1976;51.694;6.256;2022-10-31T11:15:08;24.20;98.40
3923;DHT22;1976;51.694;6.256;2022-10-31T11:17:42;23.90;98.80
3923;DHT22;1976;51.694;6.256;2022-10-31T11:22:44;23.20;99.40
3923;DHT22;1976;51.694;6.256;2022-10-31T11:25:22;22.70;99.90
3923;DHT22;1976;51.694;6.256;2022-10-31T11:28:03;22.60;99.90
3923;DHT22;1976;51.694;6.256;2022-10-31T11:30:29;22.40;99.90
3923;DHT22;1976;51.694;6.256;2022-10-31T11:35:24;22.40;99.90
3923;DHT22;1976;51.694;6.256;2022-10-31T11:37:52;22.40;99.90
3923;DHT22;1976;51.694;6.256;2022-10-31T11:40:25;22.20;99.90
3923;DHT22;1976;51.694;6.256;2022-10-31T11:42:54;22.10;99.90
3923;DHT22;1976;51.694;6.256;2022-10-31T11:47:56;21.70;99.90
3923;DHT22;1976;51.694;6.256;2022-10-31T11:50:29;21.60;99.90
3923;DHT22;1976;51.694;6.256;2022-10-31T11:52:55;21.50;99.90
3923;DHT22;1976;51.694;6.256;2022-10-31T11:55:31;21.50;99.90
3923;DHT22;1976;51.694;6.256;2022-10-31T11:57:57;21.50;99.90
3923;DHT22;1976;51.694;6.256;2022-10-31T12:00:27;21.60;99.90
3923;DHT22;1976;51.694;6.256;2022-10-31T12:05:58;21.90;99.90
3923;DHT22;1976;51.694;6.256;2022-10-31T12:08:28;21.80;99.90
3923;DHT22;1976;51.694;6.256;2022-10-31T12:14:17;21.80;99.90
3923;DHT22;1976;51.694;6.256;2022-10-31T12:23:06;21.80;99.90
3923;DHT22;1976;51.694;6.256;2022-10-31T12:25:30;21.80;99.90
3923;DHT22;1976;51.694;6.256;2022-10-31T12:30:59;21.80;99.90
3923;DHT22;1976;51.694;6.256;2022-10-31T12:51:14;21.50;99.90
3923;DHT22;1976;51.694;6.256;2022-10-31T13:04:27;21.00;99.90
3923;DHT22;1976;51.694;6.256;2022-10-31T13:07:02;21.00;99.90
3923;DHT22;1976;51.694;6.256;2022-10-31T13:09:37;21.00;99.90
3923;DHT22;1976;51.694;6.256;2022-10-31T13:12:13;21.00;99.90
3923;DHT22;1976;51.694;6.256;2022-10-31T13:14:46;20.90;99.90
3923;DHT22;1976;51.694;6.256;2022-10-31T13:17:22;20.90;99.90
3923;DHT22;1976;51.694;6.256;2022-10-31T13:19:50;20.90;99.90
3923;DHT22;1976;51.694;6.256;2022-10-31T13:22:20;20.80;99.90
3923;DHT22;1976;51.694;6.256;2022-10-31T13:24:59;20.80;99.90
3923;DHT22;1976;51.694;6.256;2022-10-31T13:27:33;20.70;99.90
3923;DHT22;1976;51.694;6.256;2022-10-31T13:34:58;20.60;99.90
3923;DHT22;1976;51.694;6.256;2022-10-31T13:40:44;20.60;99.90
3923;DHT22;1976;51.694;6.256;2022-10-31T13:43:20;20.50;99.90
3923;DHT22;1976;51.694;6.256;2022-10-31T13:45:52;20.50;99.90
3923;DHT22;1976;51.694;6.256;2022-10-31T13:48:35;20.50;99.90
3923;DHT22;1976;51.694;6.256;2022-10-31T13:51:04;20.40;99.90
3923;DHT22;1976;51.694;6.256;2022-10-31T13:53:45;20.40;99.90
3923;DHT22;1976;51.694;6.256;2022-10-31T13:56:29;20.40;99.90
3923;DHT22;1976;51.694;6.256;2022-10-31T13:59:15;20.40;99.90
3923;DHT22;1976;51.694;6.256;2022-10-31T14:01:54;20.40;99.90
3923;DHT22;1976;51.694;6.256;2022-10-31T14:04:26;20.40;99.90
3923;DHT22;1976;51.694;6.256;2022-10-31T14:07:06;20.40;99.90
3923;DHT22;1976;51.694;6.256;2022-10-31T14:09:34;20.40;99.90
3923;DHT22;1976;51.694;6.256;2022-10-31T14:12:04;20.30;99.90
3923;DHT22;1976;51.694;6.256;2022-10-31T14:14:35;20.30;99.90
3923;DHT22;1976;51.694;6.256;2022-10-31T14:17:05;20.20;99.90
3923;DHT22;1976;51.694;6.256;2022-10-31T14:19:31;20.20;99.90
3923;DHT22;1976;51.694;6.256;2022-10-31T14:21:56;20.10;99.90
3923;DHT22;1976;51.694;6.256;2022-10-31T14:26:54;20.10;99.90
3923;DHT22;1976;51.694;6.256;2022-10-31T14:31:54;20.10;99.90
3923;DHT22;1976;51.694;6.256;2022-10-31T14:34:31;20.20;99.90
3923;DHT22;1976;51.694;6.256;2022-10-31T14:40:16;20.30;99.90
3923;DHT22;1976;51.694;6.256;2022-10-31T14:43:05;20.40;99.90
3923;DHT22;1976;51.694;6.256;2022-10-31T14:50:49;20.50;99.90
3923;DHT22;1976;51.694;6.256;2022-10-31T14:53:26;20.70;99.90
3923;DHT22;1976;51.694;6.256;2022-10-31T14:55:54;20.80;99.90
3923;DHT22;1976;51.694;6.256;2022-10-31T14:58:41;21.00;99.90
3923;DHT22;1976;51.694;6.256;2022-10-31T15:01:25;21.10;99.90
3923;DHT22;1976;51.694;6.256;2022-10-31T15:03:53;21.30;99.90
3923;DHT22;1976;51.694;6.256;2022-10-31T15:06:21;21.60;99.90
3923;DHT22;1976;51.694;6.256;2022-10-31T15:08:50;21.80;99.90
3923;DHT22;1976;51.694;6.256;2022-10-31T15:11:25;22.00;99.90
3923;DHT22;1976;51.694;6.256;2022-10-31T15:13:53;22.10;99.90
3923;DHT22;1976;51.694;6.256;2022-10-31T15:16:33;22.20;99.90
3923;DHT22;1976;51.694;6.256;2022-10-31T15:19:09;22.20;99.90
3923;DHT22;1976;51.694;6.256;2022-10-31T15:21:40;22.10;99.90
3923;DHT22;1976;51.694;6.256;2022-10-31T15:24:12;21.70;99.90
3923;DHT22;1976;51.694;6.256;2022-10-31T15:26:40;21.40;99.90
3923;DHT22;1976;51.694;6.256;2022-10-31T15:29:15;21.20;99.90
3923;DHT22;1976;51.694;6.256;2022-10-31T15:32:15;21.10;99.90
3923;DHT22;1976;51.694;6.256;2022-10-31T15:34:43;21.00;99.90
3923;DHT22;1976;51.694;6.256;2022-10-31T15:37:10;20.80;99.90
3923;DHT22;1976;51.694;6.256;2022-10-31T15:39:37;20.50;99.90
3923;DHT22;1976;51.694;6.256;2022-10-31T15:42:03;20.40;99.90
3923;DHT22;1976;51.694;6.256;2022-10-31T15:44:31;20.10;99.90
3923;DHT22;1976;51.694;6.256;2022-10-31T15:47:03;20.00;99.90
3923;DHT22;1976;51.694;6.256;2022-10-31T15:49:36;19.80;99.90
3923;DHT22;1976;51.694;6.256;2022-10-31T15:54:50;19.40;99.90
3923;DHT22;1976;51.694;6.256;2022-10-31T15:57:17;19.30;99.90
3923;DHT22;1976;51.694;6.256;2022-10-31T15:59:47;19.10;99.90
3923;DHT22;1976;51.694;6.256;2022-10-31T16:02:17;19.00;99.90
3923;DHT22;1976;51.694;6.256;2022-10-31T16:07:20;18.80;99.90
3923;DHT22;1976;51.694;6.256;2022-10-31T16:10:03;18.50;99.90
3923;DHT22;1976;51.694;6.256;2022-10-31T16:12:36;18.30;99.90
3923;DHT22;1976;51.694;6.256;2022-10-31T16:15:04;18.10;99.90
3923;DHT22;1976;51.694;6.256;2022-10-31T16:17:30;17.80;99.90
3923;DHT22;1976;51.694;6.256;2022-10-31T16:20:05;17.60;99.90
3923;DHT22;1976;51.694;6.256;2022-10-31T16:22:35;17.50;99.90
3923;DHT22;1976;51.694;6.256;2022-10-31T16:27:54;17.30;99.90
3923;DHT22;1976;51.694;6.256;2022-10-31T16:30:43;17.20;99.90
3923;DHT22;1976;51.694;6.256;2022-10-31T16:35:58;17.10;99.90
3923;DHT22;1976;51.694;6.256;2022-10-31T16:38:24;17.00;99.90
3923;DHT22;1976;51.694;6.256;2022-10-31T16:40:50;17.00;99.90
3923;DHT22;1976;51.694;6.256;2022-10-31T16:43:18;17.00;99.90
3923;DHT22;1976;51.694;6.256;2022-10-31T16:45:46;16.90;99.90
3923;DHT22;1976;51.694;6.256;2022-10-31T16:48:20;16.90;99.90
3923;DHT22;1976;51.694;6.256;2022-10-31T16:50:47;16.90;99.90
3923;DHT22;1976;51.694;6.256;2022-10-31T16:53:14;16.90;99.90
3923;DHT22;1976;51.694;6.256;2022-10-31T17:01:06;17.00;99.90
3923;DHT22;1976;51.694;6.256;2022-10-31T17:03:32;17.10;99.90
3923;DHT22;1976;51.694;6.256;2022-10-31T17:05:58;17.20;99.90
3923;DHT22;1976;51.694;6.256;2022-10-31T17:08:24;17.30;99.90
3923;DHT22;1976;51.694;6.256;2022-10-31T17:10:57;17.50;99.90
3923;DHT22;1976;51.694;6.256;2022-10-31T17:13:25;17.50;99.90
3923;DHT22;1976;51.694;6.256;2022-10-31T17:15:55;17.60;99.90
3923;DHT22;1976;51.694;6.256;2022-10-31T17:18:21;17.60;99.90
3923;DHT22;1976;51.694;6.256;2022-10-31T17:20:47;17.80;99.90
3923;DHT22;1976;51.694;6.256;2022-10-31T17:23:15;17.80;99.90
3923;DHT22;1976;51.694;6.256;2022-10-31T17:25:41;17.90;99.90
3923;DHT22;1976;51.694;6.256;2022-10-31T17:28:11;18.00;99.90
3923;DHT22;1976;51.694;6.256;2022-10-31T17:30:38;18.00;99.90
3923;DHT22;1976;51.694;6.256;2022-10-31T17:33:03;18.20;99.90
3923;DHT22;1976;51.694;6.256;2022-10-31T17:35:29;18.20;99.90
3923;DHT22;1976;51.694;6.256;2022-10-31T17:37:55;18.20;99.90
3923;DHT22;1976;51.694;6.256;2022-10-31T17:40:21;18.20;99.90
3923;DHT22;1976;51.694;6.256;2022-10-31T17:42:55;18.20;99.90
3923;DHT22;1976;51.694;6.256;2022-10-31T17:45:22;18.30;99.90
3923;DHT22;1976;51.694;6.256;2022-10-31T17:47:50;18.30;99.90
3923;DHT22;1976;51.694;6.256;2022-10-31T17:50:18;18.30;99.90
3923;DHT22;1976;51.694;6.256;2022-10-31T17:52:44;18.30;99.90
3923;DHT22;1976;51.694;6.256;2022-10-31T17:55:10;18.40;99.90
3923;DHT22;1976;51.694;6.256;2022-10-31T17:57:36;18.40;99.90
3923;DHT22;1976;51.694;6.256;2022-10-31T18:00:07;18.50;99.90
3923;DHT22;1976;51.694;6.256;2022-10-31T18:02:34;18.50;99.90
3923;DHT22;1976;51.694;6.256;2022-10-31T18:05:00;18.50;99.90
3923;DHT22;1976;51.694;6.256;2022-10-31T18:07:30;18.50;99.90
3923;DHT22;1976;51.694;6.256;2022-10-31T18:09:56;18.50;99.90
3923;DHT22;1976;51.694;6.256;2022-10-31T18:12:21;18.50;99.90
3923;DHT22;1976;51.694;6.256;2022-10-31T18:14:47;18.50;99.90
3923;DHT22;1976;51.694;6.256;2022-10-31T18:17:13;18.40;99.90
3923;DHT22;1976;51.694;6.256;2022-10-31T18:19:39;18.40;99.90
3923;DHT22;1976;51.694;6.256;2022-10-31T18:22:05;18.40;99.90
3923;DHT22;1976;51.694;6.256;2022-10-31T18:24:30;18.30;99.90
3923;DHT22;1976;51.694;6.256;2022-10-31T18:26:57;18.30;99.90
3923;DHT22;1976;51.694;6.256;2022-10-31T18:29:23;18.20;99.90
3923;DHT22;1976;51.694;6.256;2022-10-31T18:31:48;18.20;99.90
3923;DHT22;1976;51.694;6.256;2022-10-31T18:34:16;18.20;99.90
3923;DHT22;1976;51.694;6.256;2022-10-31T18:36:42;18.10;99.90
3923;DHT22;1976;51.694;6.256;2022-10-31T18:39:08;18.10;99.90
3923;DHT22;1976;51.694;6.256;2022-10-31T18:41:36;18.10;99.90
3923;DHT22;1976;51.694;6.256;2022-10-31T18:44:03;18.10;99.90
3923;DHT22;1976;51.694;6.256;2022-10-31T18:46:29;18.00;99.90
3923;DHT22;1976;51.694;6.256;2022-10-31T18:48:55;17.90;99.90
3923;DHT22;1976;51.694;6.256;2022-10-31T18:51:21;17.80;99.90
3923;DHT22;1976;51.694;6.256;2022-10-31T18:53:56;17.80;99.90
3923;DHT22;1976;51.694;6.256;2022-10-31T18:56:22;17.70;99.90
3923;DHT22;1976;51.694;6.256;2022-10-31T18:58:49;17.70;99.90
3923;DHT22;1976;51.694;6.256;2022-10-31T19:01:15;17.60;99.90
3923;DHT22;1976;51.694;6.256;2022-10-31T19:03:42;17.60;99.90
3923;DHT22;1976;51.694;6.256;2022-10-31T19:06:08;17.50;99.90
3923;DHT22;1976;51.694;6.256;2022-10-31T19:08:35;17.50;99.90
3923;DHT22;1976;51.694;6.256;2022-10-31T19:13:35;17.30;99.90
3923;DHT22;1976;51.694;6.256;2022-10-31T19:16:14;17.30;99.90
3923;DHT22;1976;51.694;6.256;2022-10-31T19:18:41;17.30;99.90
3923;DHT22;1976;51.694;6.256;2022-10-31T19:21:13;17.30;99.90
3923;DHT22;1976;51.694;6.256;2022-10-31T19:23:39;17.20;99.90